Time;durP1;ratioP1;P1;durP2;ratioP2;P2;SDS_P1;SDS_P2;PMS_P1;PMS_P2;Temp;Humidity;BMP_temperature;BMP_pressure;BME280_temperature;BME280_humidity;BME280_pressure;Samples;Min_cycle;Max_cycle;Signal;HPM_P1;HPM_P2
2023/08/06 00:01:53;;;;;;;6.00;5.45;;;17.30;99.90;;;;;;5027690;28;20228;-72
2023/08/06 00:04:19;;;;;;;5.73;5.30;;;17.30;99.90;;;;;;5032508;28;20623;-73
2023/08/06 00:06:44;;;;;;;6.40;5.88;;;17.40;99.90;;;;;;5033200;28;20205;-72
2023/08/06 00:09:10;;;;;;;5.50;5.10;;;17.20;99.90;;;;;;5034574;28;20295;-73
2023/08/06 00:11:35;;;;;;;5.67;5.17;;;17.30;99.90;;;;;;5034444;28;20209;-73
2023/08/06 00:14:01;;;;;;;6.30;5.80;;;17.20;99.90;;;;;;5027733;28;20186;-73
2023/08/06 00:16:27;;;;;;;5.27;4.83;;;17.20;99.90;;;;;;5030471;28;20577;-73
2023/08/06 00:18:52;;;;;;;6.27;5.77;;;17.00;99.90;;;;;;5027632;28;20269;-72
2023/08/06 00:21:18;;;;;;;6.13;5.63;;;17.00;99.90;;;;;;5029397;28;20189;-72
2023/08/06 00:23:43;;;;;;;5.93;5.53;;;16.90;99.90;;;;;;5026269;28;20662;-73
2023/08/06 00:26:09;;;;;;;5.63;5.13;;;16.90;99.90;;;;;;5076240;23;20230;-91
2023/08/06 00:28:34;;;;;;;5.80;5.30;;;16.90;99.90;;;;;;5026365;28;20185;-90
2023/08/06 00:31:00;;;;;;;6.10;5.57;;;17.20;99.90;;;;;;5025238;28;20212;-91
2023/08/06 00:33:25;;;;;;;6.03;5.53;;;18.20;99.90;;;;;;5025364;28;20193;-90
2023/08/06 00:35:51;;;;;;;6.63;6.13;;;16.60;99.90;;;;;;5032805;28;20213;-91
2023/08/06 00:38:17;;;;;;;5.53;5.03;;;16.40;99.90;;;;;;5046495;28;20189;-91
2023/08/06 00:40:43;;;;;;;6.10;5.60;;;17.20;99.90;;;;;;5051532;28;20453;-90
2023/08/06 00:43:08;;;;;;;5.57;5.18;;;17.40;99.90;;;;;;5053387;28;20217;-91
2023/08/06 00:45:35;;;;;;;5.50;5.10;;;18.30;99.90;;;;;;5055670;28;20166;-90
2023/08/06 00:48:03;;;;;;;5.82;5.32;;;17.90;99.90;;;;;;5054011;28;20194;-90
2023/08/06 00:50:28;;;;;;;5.30;4.90;;;16.50;99.90;;;;;;5054355;28;20184;-91
2023/08/06 00:52:54;;;;;;;5.57;5.07;;;15.80;99.90;;;;;;5055994;28;20202;-90
2023/08/06 00:55:20;;;;;;;5.20;4.80;;;17.30;99.90;;;;;;5045053;28;20194;-90
2023/08/06 00:57:46;;;;;;;5.03;4.63;;;17.80;99.90;;;;;;5027519;28;20495;-91
2023/08/06 01:00:12;;;;;;;5.78;5.28;;;17.60;99.90;;;;;;5030389;28;20450;-90
2023/08/06 01:02:38;;;;;;;5.70;5.20;;;16.30;99.90;;;;;;5029806;28;20182;-91
2023/08/06 01:05:04;;;;;;;6.40;5.80;;;17.70;99.90;;;;;;5029740;28;20436;-91
2023/08/06 01:07:56;;;;;;;5.60;5.10;;;16.20;99.90;;;;;;5030318;28;20284;-90
2023/08/06 01:10:50;;;;;;;5.18;4.78;;;16.40;99.90;;;;;;5032895;28;20178;-91
2023/08/06 01:13:31;;;;;;;5.53;5.03;;;15.50;99.90;;;;;;5046753;28;20190;-91
2023/08/06 01:16:01;;;;;;;5.22;4.82;;;16.00;99.90;;;;;;5034063;28;20182;-91
2023/08/06 01:18:28;;;;;;;5.63;5.13;;;17.80;99.90;;;;;;5034367;28;20195;-91
2023/08/06 01:20:53;;;;;;;5.13;4.72;;;18.20;99.90;;;;;;5033469;28;20192;-91
2023/08/06 01:23:19;;;;;;;5.90;5.40;;;16.90;99.90;;;;;;5033263;28;20271;-91
2023/08/06 01:26:05;;;;;;;4.85;4.45;;;15.80;99.90;;;;;;5032048;28;20201;-91
2023/08/06 01:28:51;;;;;;;5.93;4.72;;;16.20;99.90;;;;;;5029695;28;20182;-91
2023/08/06 01:31:37;;;;;;;4.10;3.72;;;16.70;99.90;;;;;;5046418;28;20202;-92
2023/08/06 01:34:07;;;;;;;3.17;2.97;;;17.90;99.90;;;;;;5032398;28;20182;-92
2023/08/06 01:36:32;;;;;;;3.30;3.10;;;18.60;99.90;;;;;;5030330;28;20253;-92
2023/08/06 01:38:58;;;;;;;3.63;3.33;;;17.90;99.90;;;;;;5033460;28;20194;-92
2023/08/06 01:41:24;;;;;;;3.20;3.00;;;16.40;99.90;;;;;;5033140;28;20189;-92
2023/08/06 01:43:49;;;;;;;3.60;3.30;;;16.60;99.90;;;;;;5029079;28;20182;-92
2023/08/06 01:46:15;;;;;;;3.80;3.50;;;17.70;99.90;;;;;;5030886;28;20537;-90
2023/08/06 01:48:41;;;;;;;3.67;3.20;;;;;;;;;;5032762;28;20195;-91
2023/08/06 01:51:07;;;;;;;3.25;3.00;;;16.20;99.90;;;;;;5030024;28;20218;-91
2023/08/06 01:53:33;;;;;;;3.88;3.47;;;17.30;99.90;;;;;;5030139;28;20557;-91
2023/08/06 01:55:59;;;;;;;3.78;3.47;;;16.90;99.90;;;;;;5032678;28;20202;-91
2023/08/06 01:58:24;;;;;;;3.50;3.20;;;18.30;99.90;;;;;;5031766;28;20547;-91
2023/08/06 02:00:53;;;;;;;2.80;2.60;;;16.70;99.90;;;;;;5034762;28;20190;-91
2023/08/06 02:03:19;;;;;;;3.40;3.10;;;18.00;99.90;;;;;;5035005;28;20265;-91
2023/08/06 02:05:45;;;;;;;2.87;2.67;;;18.00;99.90;;;;;;5033321;28;20236;-91
2023/08/06 02:08:11;;;;;;;3.15;2.95;;;18.40;99.90;;;;;;5030941;28;20190;-91
2023/08/06 02:10:36;;;;;;;3.37;3.03;;;18.10;99.90;;;;;;5031968;28;20191;-91
2023/08/06 02:13:02;;;;;;;3.60;3.30;;;18.00;99.90;;;;;;5030980;28;20174;-90
2023/08/06 02:15:27;;;;;;;2.90;2.70;;;16.90;99.90;;;;;;5032631;28;20246;-91
2023/08/06 02:17:53;;;;;;;3.10;2.90;;;18.10;99.90;;;;;;5031604;28;20232;-91
2023/08/06 02:20:19;;;;;;;3.10;2.83;;;18.20;99.90;;;;;;5031285;28;20229;-92
2023/08/06 02:22:44;;;;;;;3.17;2.93;;;17.00;99.90;;;;;;5031116;28;20210;-91
2023/08/06 02:25:10;;;;;;;3.30;3.00;;;;;;;;;;5032366;28;20563;-91
2023/08/06 02:27:37;;;;;;;3.40;3.10;;;16.10;99.90;;;;;;5040551;28;20231;-92
2023/08/06 02:30:04;;;;;;;4.18;3.45;;;17.20;99.90;;;;;;5050052;28;20487;-92
2023/08/06 02:32:31;;;;;;;3.50;3.17;;;16.10;99.90;;;;;;5016612;28;20264;-92
2023/08/06 02:34:57;;;;;;;3.17;2.92;;;16.00;99.90;;;;;;5033239;28;20183;-92
2023/08/06 02:37:23;;;;;;;3.90;3.60;;;;;;;;;;5033887;28;20220;-92
2023/08/06 02:39:48;;;;;;;4.07;3.67;;;15.70;99.90;;;;;;5031520;28;20205;-92
2023/08/06 02:42:14;;;;;;;4.23;3.83;;;16.20;99.90;;;;;;5031386;28;20510;-92
2023/08/06 02:44:39;;;;;;;3.90;3.60;;;17.50;99.90;;;;;;5033589;28;20574;-92
2023/08/06 02:47:05;;;;;;;3.20;3.00;;;15.10;99.90;;;;;;5031640;28;20288;-89
2023/08/06 02:49:31;;;;;;;4.10;3.80;;;15.30;99.90;;;;;;5032334;28;20232;-92
2023/08/06 02:51:56;;;;;;;3.77;3.47;;;15.80;99.90;;;;;;5035629;28;20282;-92
2023/08/06 02:54:22;;;;;;;4.40;2.97;;;15.80;99.90;;;;;;5036848;28;20183;-92
2023/08/06 02:56:47;;;;;;;4.93;3.40;;;15.60;99.90;;;;;;5021954;28;20202;-92
2023/08/06 02:59:13;;;;;;;3.00;2.80;;;15.60;99.90;;;;;;5032674;28;20580;-91
2023/08/06 03:01:39;;;;;;;2.73;2.53;;;16.60;99.90;;;;;;5035334;28;20205;-92
2023/08/06 03:04:06;;;;;;;3.13;2.93;;;16.90;99.90;;;;;;5039659;28;20450;-91
2023/08/06 03:06:31;;;;;;;2.80;2.60;;;16.60;99.90;;;;;;5034274;28;20670;-91
2023/08/06 03:08:57;;;;;;;3.03;2.83;;;15.50;99.90;;;;;;5035813;28;20205;-91
2023/08/06 03:11:22;;;;;;;3.13;2.90;;;17.00;99.90;;;;;;5033618;28;20195;-91
2023/08/06 03:13:48;;;;;;;3.40;3.10;;;;;;;;;;5034535;28;20191;-91
2023/08/06 03:16:14;;;;;;;4.55;2.58;;;15.40;99.90;;;;;;5040863;28;20194;-92
2023/08/06 03:18:40;;;;;;;2.53;2.30;;;17.30;99.90;;;;;;5042518;28;20214;-91
2023/08/06 03:21:06;;;;;;;2.03;1.90;;;;;;;;;;5037508;28;20670;-91
2023/08/06 03:23:32;;;;;;;3.38;2.70;;;15.50;99.90;;;;;;5036630;28;20200;-91
2023/08/06 03:26:04;;;;;;;2.37;2.20;;;15.90;99.90;;;;;;5033966;28;20229;-91
2023/08/06 03:28:30;;;;;;;2.55;2.35;;;17.10;99.90;;;;;;5047513;28;20669;-91
2023/08/06 03:31:04;;;;;;;2.83;2.33;;;17.10;99.90;;;;;;5032799;28;20210;-90
2023/08/06 03:33:30;;;;;;;4.13;1.90;;;17.80;99.90;;;;;;5045483;28;20173;-90
2023/08/06 03:35:56;;;;;;;2.88;2.15;;;15.80;99.90;;;;;;5035764;28;20200;-90
2023/08/06 03:38:22;;;;;;;2.73;2.53;;;16.60;99.90;;;;;;5040650;28;20186;-90
2023/08/06 03:40:48;;;;;;;2.42;2.22;;;16.70;99.90;;;;;;5050562;28;20239;-90
2023/08/06 03:43:14;;;;;;;5.30;3.03;;;17.90;99.90;;;;;;5043374;28;20182;-91
2023/08/06 03:45:40;;;;;;;2.70;2.40;;;16.80;99.90;;;;;;5038995;28;20448;-91
2023/08/06 03:48:06;;;;;;;2.75;2.55;;;17.50;99.90;;;;;;5030861;28;20441;-92
2023/08/06 03:50:32;;;;;;;3.23;2.93;;;15.50;99.90;;;;;;5029867;28;20556;-91
2023/08/06 03:52:57;;;;;;;2.40;2.20;;;17.10;99.90;;;;;;5028861;28;20194;-91
2023/08/06 03:55:23;;;;;;;3.23;2.47;;;17.10;99.90;;;;;;5029820;28;20191;-91
2023/08/06 03:57:48;;;;;;;3.13;2.00;;;17.70;99.90;;;;;;5027540;28;20702;-91
2023/08/06 04:00:14;;;;;;;2.60;2.00;;;17.30;99.90;;;;;;5028816;28;20647;-91
2023/08/06 04:02:40;;;;;;;5.47;2.53;;;15.90;99.90;;;;;;5031978;28;20557;-92
2023/08/06 04:05:05;;;;;;;2.70;2.20;;;17.00;99.90;;;;;;5030076;28;20499;-91
2023/08/06 04:07:31;;;;;;;3.30;2.40;;;15.90;99.90;;;;;;5029719;28;20210;-92
2023/08/06 04:10:04;;;;;;;4.37;2.17;;;17.70;99.90;;;;;;5029081;28;20213;-92
2023/08/06 04:12:31;;;;;;;3.08;2.72;;;16.40;99.90;;;;;;5030859;28;20228;-92
2023/08/06 04:14:58;;;;;;;1.85;1.73;;;17.30;99.90;;;;;;5031648;28;20198;-92
2023/08/06 04:17:24;;;;;;;2.33;1.88;;;16.30;99.90;;;;;;5031882;28;20244;-92
2023/08/06 04:19:54;;;;;;;2.40;2.20;;;16.20;99.90;;;;;;5028885;28;20216;-92
2023/08/06 04:22:21;;;;;;;2.80;2.60;;;16.90;99.90;;;;;;5027481;28;20194;-92
2023/08/06 04:24:47;;;;;;;3.17;2.88;;;15.80;99.90;;;;;;5029608;28;20292;-92
2023/08/06 04:27:14;;;;;;;3.20;2.90;;;16.90;99.90;;;;;;5030793;28;20225;-92
2023/08/06 04:29:40;;;;;;;2.90;2.70;;;16.20;99.90;;;;;;5029008;28;20647;-91
2023/08/06 04:32:08;;;;;;;4.80;2.53;;;16.90;99.90;;;;;;5030861;28;20268;-92
2023/08/06 04:34:34;;;;;;;3.28;2.97;;;16.10;99.90;;;;;;5033922;28;20274;-92
2023/08/06 04:37:01;;;;;;;3.38;3.08;;;17.10;99.90;;;;;;5030184;28;20201;-92
2023/08/06 04:39:26;;;;;;;3.58;2.90;;;17.80;99.90;;;;;;5029697;28;20186;-92
2023/08/06 04:41:52;;;;;;;2.80;2.60;;;18.30;99.90;;;;;;5030887;28;20546;-92
2023/08/06 04:44:18;;;;;;;3.10;2.50;;;16.40;99.90;;;;;;5031645;28;20753;-91
2023/08/06 04:46:43;;;;;;;2.60;2.40;;;16.10;99.90;;;;;;5032248;28;20198;-92
2023/08/06 04:49:09;;;;;;;2.90;2.37;;;17.10;99.90;;;;;;5033526;28;21330;-92
2023/08/06 04:51:35;;;;;;;3.30;2.13;;;16.10;99.90;;;;;;5036233;28;20206;-91
2023/08/06 04:54:02;;;;;;;2.63;2.13;;;18.20;99.90;;;;;;5028196;28;20190;-91
2023/08/06 04:56:27;;;;;;;2.10;2.00;;;16.10;99.90;;;;;;5053506;28;20266;-91
2023/08/06 04:58:53;;;;;;;4.87;1.93;;;18.00;99.90;;;;;;5051155;28;20205;-92
2023/08/06 05:01:18;;;;;;;1.70;1.60;;;15.80;99.90;;;;;;5052288;28;20175;-91
2023/08/06 05:03:44;;;;;;;1.87;1.40;;;16.80;99.90;;;;;;5054476;28;20206;-92
2023/08/06 05:06:10;;;;;;;1.67;1.57;;;17.50;99.90;;;;;;5055121;28;20230;-91
2023/08/06 05:08:36;;;;;;;1.60;1.50;;;17.90;99.90;;;;;;5054270;28;20180;-91
2023/08/06 05:11:01;;;;;;;2.03;1.70;;;18.40;99.90;;;;;;5047007;28;20218;-92
2023/08/06 05:13:27;;;;;;;2.23;1.40;;;17.40;99.90;;;;;;5029123;28;20265;-92
2023/08/06 05:15:56;;;;;;;3.00;1.70;;;16.40;99.90;;;;;;5024223;28;20197;-92
2023/08/06 05:18:22;;;;;;;1.98;1.50;;;17.50;99.90;;;;;;5025673;28;20831;-92
2023/08/06 05:20:48;;;;;;;1.60;1.50;;;17.80;99.90;;;;;;5028320;28;20289;-91
2023/08/06 05:23:13;;;;;;;2.23;1.60;;;17.00;99.90;;;;;;5027690;28;20560;-91
2023/08/06 05:25:39;;;;;;;3.57;1.73;;;17.90;99.90;;;;;;5028155;28;21400;-92
2023/08/06 05:28:05;;;;;;;2.40;1.50;;;;;;;;;;5027769;28;20256;-92
2023/08/06 05:30:31;;;;;;;1.83;1.38;;;16.50;99.90;;;;;;5029337;28;20437;-92
2023/08/06 05:32:57;;;;;;;2.00;1.40;;;17.00;99.90;;;;;;5027334;28;20304;-90
2023/08/06 05:35:23;;;;;;;1.40;1.30;;;17.10;99.90;;;;;;5030469;28;20251;-91
2023/08/06 05:37:50;;;;;;;2.03;1.10;;;17.30;99.90;;;;;;5025905;28;20277;-91
2023/08/06 05:40:16;;;;;;;1.70;1.20;;;18.80;99.90;;;;;;5026950;28;20185;-92
2023/08/06 05:42:41;;;;;;;1.63;1.13;;;17.20;99.90;;;;;;5014283;28;20281;-92
2023/08/06 05:45:08;;;;;;;1.07;1.00;;;19.30;99.90;;;;;;5027884;28;20275;-92
2023/08/06 05:51:57;;;;;;;;;;;;;;;;;;;;;
2023/08/06 05:54:32;;;;;;;2.28;1.15;;;17.80;99.90;;;;;;5048540;28;20178;-92
2023/08/06 05:57:10;;;;;;;1.20;1.00;;;18.00;99.90;;;;;;5057663;28;20204;-92
2023/08/06 05:59:41;;;;;;;1.00;0.90;;;17.40;99.90;;;;;;5041699;28;20242;-93
2023/08/06 06:03:26;;;;;;;;;;;;;;;;;;;;;
2023/08/06 06:06:00;;;;;;;1.58;1.10;;;15.40;99.90;;;;;;5045639;28;20170;-95
2023/08/06 06:08:25;;;;;;;1.75;0.70;;;17.80;99.90;;;;;;5047740;23;20571;-69
2023/08/06 06:10:51;;;;;;;0.80;0.73;;;17.20;99.90;;;;;;5034311;28;20178;-70
2023/08/06 06:13:16;;;;;;;1.20;1.00;;;17.30;99.90;;;;;;5031925;28;20225;-70
2023/08/06 06:15:42;;;;;;;2.67;0.63;;;17.30;99.90;;;;;;5034491;28;20202;-71
2023/08/06 06:18:07;;;;;;;2.30;0.97;;;17.40;99.90;;;;;;5032095;28;20182;-69
2023/08/06 06:20:33;;;;;;;1.63;0.87;;;17.50;99.90;;;;;;5028437;28;20194;-69
2023/08/06 06:22:59;;;;;;;1.37;1.00;;;17.70;99.90;;;;;;5026582;28;20183;-70
2023/08/06 06:25:25;;;;;;;1.03;0.80;;;17.30;99.90;;;;;;5029089;28;20556;-72
2023/08/06 06:27:50;;;;;;;1.17;0.70;;;17.50;99.90;;;;;;5026461;28;20226;-71
2023/08/06 06:30:16;;;;;;;2.43;0.90;;;17.40;99.90;;;;;;5028590;28;20187;-73
2023/08/06 06:32:42;;;;;;;0.70;0.60;;;17.30;99.90;;;;;;5027266;28;20225;-71
2023/08/06 06:35:08;;;;;;;0.80;0.70;;;17.30;99.90;;;;;;5032391;28;20194;-71
2023/08/06 06:37:33;;;;;;;1.17;0.70;;;17.30;99.90;;;;;;5030576;28;20175;-71
2023/08/06 06:39:59;;;;;;;1.10;0.90;;;17.30;99.90;;;;;;5029492;28;20190;-72
2023/08/06 06:42:24;;;;;;;0.90;0.73;;;17.30;99.90;;;;;;5029787;28;20206;-71
2023/08/06 06:44:50;;;;;;;2.70;1.33;;;17.20;99.90;;;;;;5031122;28;20202;-72
2023/08/06 06:47:16;;;;;;;1.03;1.00;;;17.50;99.90;;;;;;5028102;28;20554;-71
2023/08/06 06:49:41;;;;;;;1.10;0.80;;;17.50;99.90;;;;;;5028962;28;20765;-72
2023/08/06 06:52:07;;;;;;;1.73;0.87;;;17.60;99.90;;;;;;5029661;28;20699;-72
2023/08/06 06:54:32;;;;;;;2.70;1.00;;;18.00;99.90;;;;;;5026570;28;20203;-73
2023/08/06 06:56:58;;;;;;;0.80;0.70;;;18.00;99.90;;;;;;5033394;28;20182;-71
2023/08/06 06:59:23;;;;;;;1.23;0.80;;;18.00;99.90;;;;;;5024381;28;20557;-72
2023/08/06 07:01:49;;;;;;;2.40;1.07;;;18.00;99.90;;;;;;5028494;28;20188;-73
2023/08/06 07:04:14;;;;;;;0.83;0.80;;;17.90;99.90;;;;;;5028988;28;20205;-73
2023/08/06 07:06:40;;;;;;;1.73;0.90;;;17.80;99.90;;;;;;5025971;28;20228;-73
2023/08/06 07:09:06;;;;;;;1.20;0.70;;;17.60;99.90;;;;;;5033076;28;20247;-70
2023/08/06 07:11:31;;;;;;;0.87;0.80;;;17.60;99.90;;;;;;5029042;28;20240;-69
2023/08/06 07:13:58;;;;;;;1.10;0.80;;;17.50;99.90;;;;;;5028748;28;20236;-70
2023/08/06 07:16:24;;;;;;;0.90;0.68;;;17.40;99.90;;;;;;5027118;28;20203;-70
2023/08/06 07:18:52;;;;;;;1.20;0.77;;;17.40;99.90;;;;;;5035327;28;20205;-70
2023/08/06 07:21:18;;;;;;;1.90;0.70;;;17.40;99.90;;;;;;5022709;28;20205;-73
2023/08/06 07:23:43;;;;;;;0.90;0.60;;;17.60;99.90;;;;;;5031468;28;20618;-73
2023/08/06 07:26:09;;;;;;;0.90;0.80;;;17.10;99.90;;;;;;5021526;28;20210;-76
2023/08/06 07:28:35;;;;;;;0.87;0.70;;;16.90;99.90;;;;;;5024704;28;20182;-74
2023/08/06 07:31:02;;;;;;;1.03;0.80;;;16.90;99.90;;;;;;5028688;28;20328;-74
2023/08/06 07:33:28;;;;;;;0.82;0.70;;;16.80;99.90;;;;;;5025480;28;20183;-74
2023/08/06 07:35:53;;;;;;;1.03;0.77;;;16.80;99.90;;;;;;5025658;28;20210;-74
2023/08/06 07:38:19;;;;;;;1.20;0.70;;;16.80;99.90;;;;;;5023636;28;20178;-73
2023/08/06 07:40:45;;;;;;;1.70;0.77;;;16.50;99.90;;;;;;5026186;28;20677;-70
2023/08/06 07:43:10;;;;;;;0.90;0.70;;;16.70;99.90;;;;;;5027034;28;20192;-75
2023/08/06 07:45:36;;;;;;;0.80;0.70;;;16.50;99.90;;;;;;5025250;28;20212;-73
2023/08/06 07:48:03;;;;;;;0.73;0.60;;;16.80;99.90;;;;;;5024328;28;20280;-70
2023/08/06 07:50:28;;;;;;;1.48;0.70;;;16.90;99.90;;;;;;5036828;28;20265;-79
2023/08/06 07:52:54;;;;;;;0.70;0.70;;;16.80;99.90;;;;;;5026781;28;20679;-75
2023/08/06 07:55:20;;;;;;;0.70;0.60;;;16.90;99.90;;;;;;5018057;28;20693;-70
2023/08/06 07:57:45;;;;;;;1.00;0.63;;;16.90;99.90;;;;;;5032567;28;20182;-73
2023/08/06 08:00:11;;;;;;;0.70;0.70;;;17.00;99.90;;;;;;5024453;28;20264;-69
2023/08/06 08:02:36;;;;;;;1.77;0.70;;;17.10;99.90;;;;;;5022557;28;20186;-69
2023/08/06 08:05:02;;;;;;;0.70;0.60;;;17.00;99.90;;;;;;5028998;28;20240;-69
2023/08/06 08:07:30;;;;;;;1.73;0.67;;;17.30;99.90;;;;;;5030317;28;20182;-69
2023/08/06 08:09:56;;;;;;;0.70;0.55;;;17.20;99.90;;;;;;5032909;28;20619;-70
2023/08/06 08:12:22;;;;;;;1.85;0.85;;;17.30;99.90;;;;;;5024773;28;20221;-69
2023/08/06 08:14:47;;;;;;;0.73;0.60;;;17.20;99.90;;;;;;5029843;28;20201;-68
2023/08/06 08:17:13;;;;;;;0.70;0.60;;;17.40;99.90;;;;;;5030345;28;20444;-69
2023/08/06 08:19:40;;;;;;;0.60;0.50;;;17.50;99.90;;;;;;5031094;28;20185;-70
2023/08/06 08:22:05;;;;;;;1.15;0.40;;;17.60;99.90;;;;;;5030906;28;20703;-69
2023/08/06 08:24:31;;;;;;;0.60;0.50;;;17.80;99.90;;;;;;5033115;28;20215;-69
2023/08/06 08:26:56;;;;;;;0.70;0.50;;;18.10;99.90;;;;;;5032075;28;20751;-69
2023/08/06 08:29:22;;;;;;;0.63;0.40;;;18.30;99.90;;;;;;5022722;28;20194;-69
2023/08/06 08:31:50;;;;;;;0.70;0.40;;;18.80;99.90;;;;;;5029144;28;20631;-70
2023/08/06 08:34:16;;;;;;;0.60;0.40;;;18.70;99.90;;;;;;5024210;28;20467;-70
2023/08/06 08:36:42;;;;;;;0.60;0.50;;;19.00;99.90;;;;;;5029006;28;20173;-69
2023/08/06 08:39:07;;;;;;;0.90;0.50;;;19.20;99.90;;;;;;5022265;28;20228;-69
2023/08/06 08:41:33;;;;;;;1.00;0.43;;;19.00;99.90;;;;;;5025869;28;21307;-69
2023/08/06 08:44:00;;;;;;;0.90;0.40;;;18.80;99.90;;;;;;5029131;28;20218;-69
2023/08/06 08:46:32;;;;;;;1.00;0.50;;;18.90;99.90;;;;;;5031664;28;20237;-68
2023/08/06 08:48:59;;;;;;;0.60;0.47;;;18.90;99.90;;;;;;5030323;28;20194;-69
2023/08/06 08:51:27;;;;;;;0.65;0.50;;;18.90;99.90;;;;;;5027166;28;20236;-71
2023/08/06 08:53:56;;;;;;;1.98;0.50;;;18.80;99.90;;;;;;5029714;28;20235;-72
2023/08/06 08:56:21;;;;;;;1.27;0.43;;;18.60;99.90;;;;;;5027640;28;20202;-70
2023/08/06 08:58:48;;;;;;;1.17;0.60;;;18.40;99.90;;;;;;5019684;28;20178;-71
2023/08/06 09:01:15;;;;;;;0.60;0.47;;;18.90;99.90;;;;;;5022290;28;20573;-68
2023/08/06 09:03:42;;;;;;;0.60;0.50;;;18.30;99.90;;;;;;5022862;28;20189;-70
2023/08/06 09:06:11;;;;;;;0.60;0.40;;;18.60;99.90;;;;;;5024199;28;20205;-70
2023/08/06 09:08:40;;;;;;;0.60;0.50;;;18.50;99.90;;;;;;5031527;28;20281;-69
2023/08/06 09:11:10;;;;;;;0.70;0.40;;;18.50;99.90;;;;;;5040984;28;20230;-69
2023/08/06 09:13:38;;;;;;;0.70;0.50;;;18.80;99.90;;;;;;5032569;28;20209;-70
2023/08/06 09:16:03;;;;;;;0.70;0.40;;;18.70;99.90;;;;;;5039807;28;20707;-70
2023/08/06 09:18:30;;;;;;;0.60;0.50;;;19.30;99.90;;;;;;5032274;28;20186;-70
2023/08/06 09:20:56;;;;;;;0.60;0.40;;;19.90;99.90;;;;;;5029125;28;20252;-70
2023/08/06 09:23:29;;;;;;;0.60;0.50;;;19.90;99.90;;;;;;5031720;28;20190;-70
2023/08/06 09:25:55;;;;;;;0.60;0.40;;;19.70;99.90;;;;;;5028634;28;20228;-69
2023/08/06 09:28:20;;;;;;;0.60;0.40;;;19.60;99.90;;;;;;5033519;28;20182;-70
2023/08/06 09:30:48;;;;;;;0.60;0.40;;;19.80;99.90;;;;;;5037542;28;20174;-70
2023/08/06 09:33:18;;;;;;;0.60;0.40;;;19.90;99.90;;;;;;5039797;28;20181;-70
2023/08/06 09:35:46;;;;;;;0.60;0.40;;;19.80;99.90;;;;;;5045906;28;20205;-70
2023/08/06 09:38:12;;;;;;;0.68;0.50;;;19.90;99.90;;;;;;5034921;28;20185;-70
2023/08/06 09:40:39;;;;;;;0.70;0.50;;;20.00;99.90;;;;;;5037335;28;20225;-69
2023/08/06 09:43:05;;;;;;;0.60;0.50;;;19.80;99.90;;;;;;5032402;28;20198;-70
2023/08/06 09:45:34;;;;;;;1.42;0.60;;;19.60;99.90;;;;;;5034357;28;20232;-70
2023/08/06 09:48:03;;;;;;;0.80;0.60;;;19.50;99.90;;;;;;5033671;28;20269;-70
2023/08/06 09:50:33;;;;;;;0.70;0.50;;;19.50;99.90;;;;;;5043907;28;20194;-71
2023/08/06 09:53:00;;;;;;;0.60;0.40;;;19.50;99.90;;;;;;5038038;28;20206;-71
2023/08/06 09:55:26;;;;;;;0.60;0.50;;;19.50;99.90;;;;;;5034423;28;20357;-69
2023/08/06 09:57:53;;;;;;;0.60;0.50;;;19.40;99.90;;;;;;5034870;28;21223;-69
2023/08/06 10:00:19;;;;;;;0.80;0.60;;;19.30;99.90;;;;;;5031626;28;20191;-70
2023/08/06 10:02:46;;;;;;;2.35;0.60;;;18.90;99.90;;;;;;5038591;28;20189;-71
2023/08/06 10:05:12;;;;;;;0.60;0.40;;;19.30;99.90;;;;;;5044301;28;20344;-70
2023/08/06 10:07:39;;;;;;;0.77;0.47;;;19.20;99.90;;;;;;5035643;28;20269;-69
2023/08/06 10:10:06;;;;;;;0.85;0.50;;;19.10;99.90;;;;;;5038684;28;20200;-70
2023/08/06 10:12:39;;;;;;;2.00;0.50;;;19.10;99.90;;;;;;5025693;28;20211;-70
2023/08/06 10:15:13;;;;;;;0.70;0.50;;;18.90;99.90;;;;;;5034196;28;20210;-70
2023/08/06 10:17:42;;;;;;;0.70;0.50;;;18.80;99.90;;;;;;5031182;28;20175;-70
2023/08/06 10:20:08;;;;;;;0.70;0.50;;;18.70;99.90;;;;;;5022268;28;20191;-70
2023/08/06 10:22:34;;;;;;;0.60;0.40;;;18.70;99.90;;;;;;5031007;28;20193;-69
2023/08/06 10:25:04;;;;;;;0.70;0.50;;;18.60;99.90;;;;;;5030473;28;20198;-70
2023/08/06 10:27:31;;;;;;;0.70;0.50;;;18.50;99.90;;;;;;5030576;28;20440;-70
2023/08/06 10:30:23;;;;;;;0.60;0.40;;;18.60;99.90;;;;;;5027951;28;20190;-68
2023/08/06 10:32:57;;;;;;;0.60;0.40;;;18.20;99.90;;;;;;5033701;28;20205;-70
2023/08/06 10:35:50;;;;;;;1.08;0.60;;;18.30;99.90;;;;;;5026086;28;20206;-70
2023/08/06 10:38:18;;;;;;;0.90;0.50;;;17.90;99.90;;;;;;5026669;28;20189;-70
2023/08/06 10:40:52;;;;;;;0.70;0.50;;;18.20;99.90;;;;;;5029166;28;20185;-71
2023/08/06 10:43:28;;;;;;;1.13;0.50;;;18.20;99.90;;;;;;5042210;28;20708;-71
2023/08/06 10:45:55;;;;;;;0.70;0.50;;;18.30;99.90;;;;;;5027336;28;20220;-70
2023/08/06 10:48:37;;;;;;;0.70;0.50;;;18.20;99.90;;;;;;5033470;28;20867;-70
2023/08/06 10:51:04;;;;;;;0.60;0.40;;;18.40;99.90;;;;;;5045858;28;20617;-69
2023/08/06 10:53:30;;;;;;;0.70;0.50;;;18.50;99.90;;;;;;5025546;28;20175;-71
2023/08/06 10:55:55;;;;;;;0.60;0.40;;;18.50;99.90;;;;;;5032547;28;20530;-70
2023/08/06 10:58:21;;;;;;;0.60;0.40;;;18.40;99.90;;;;;;5023715;28;20445;-70
2023/08/06 11:00:46;;;;;;;0.60;0.47;;;18.40;99.90;;;;;;5029107;28;20270;-70
2023/08/06 11:03:12;;;;;;;0.70;0.50;;;18.50;99.90;;;;;;5029521;28;20194;-70
2023/08/06 11:05:38;;;;;;;0.70;0.60;;;18.50;99.90;;;;;;5029995;28;20205;-70
2023/08/06 11:08:04;;;;;;;0.85;0.60;;;18.60;99.90;;;;;;5031390;28;20208;-70
2023/08/06 11:10:32;;;;;;;0.97;0.60;;;18.80;99.90;;;;;;5027442;28;20186;-69
2023/08/06 11:13:02;;;;;;;1.30;0.60;;;19.10;99.90;;;;;;5034226;28;20221;-69
2023/08/06 11:15:28;;;;;;;1.00;0.60;;;19.10;99.90;;;;;;5032656;28;20289;-69
2023/08/06 11:17:53;;;;;;;1.27;0.68;;;19.00;99.90;;;;;;5028312;28;20538;-69
2023/08/06 11:20:21;;;;;;;0.80;0.67;;;18.80;99.90;;;;;;5020988;28;20187;-70
2023/08/06 11:22:47;;;;;;;1.38;0.60;;;18.60;99.90;;;;;;5030226;28;20639;-68
2023/08/06 11:25:13;;;;;;;1.33;0.57;;;18.50;99.90;;;;;;5028733;28;20221;-69
2023/08/06 11:27:41;;;;;;;0.70;0.57;;;18.50;99.90;;;;;;5033544;28;20217;-71
2023/08/06 11:30:07;;;;;;;2.13;0.50;;;18.60;99.90;;;;;;5029591;28;20222;-70
2023/08/06 11:32:35;;;;;;;1.05;0.60;;;18.60;99.90;;;;;;5033261;28;20217;-69
2023/08/06 11:35:10;;;;;;;0.82;0.65;;;18.50;99.90;;;;;;5025386;28;20205;-70
2023/08/06 11:37:37;;;;;;;0.93;0.63;;;18.60;99.90;;;;;;5030204;28;20186;-69
2023/08/06 11:40:08;;;;;;;0.90;0.80;;;18.70;99.90;;;;;;5032118;28;20186;-70
2023/08/06 11:42:35;;;;;;;1.00;0.80;;;18.70;99.90;;;;;;5019654;28;20186;-70
2023/08/06 11:45:04;;;;;;;0.95;0.85;;;18.60;99.90;;;;;;5033712;28;20621;-71
2023/08/06 11:47:29;;;;;;;1.30;0.95;;;18.60;99.90;;;;;;5020994;28;20202;-71
2023/08/06 11:49:55;;;;;;;1.10;0.97;;;18.40;99.90;;;;;;5033633;28;20606;-71
2023/08/06 11:52:23;;;;;;;1.20;1.00;;;18.30;99.90;;;;;;5026841;28;20236;-71
2023/08/06 11:55:11;;;;;;;1.10;1.00;;;18.10;99.90;;;;;;5031143;28;20206;-70
2023/08/06 11:57:44;;;;;;;1.33;1.00;;;18.00;99.90;;;;;;5033217;28;20179;-71
2023/08/06 12:00:13;;;;;;;0.95;0.95;;;17.90;99.90;;;;;;5026758;28;20214;-72
2023/08/06 12:02:41;;;;;;;1.60;1.20;;;17.90;99.90;;;;;;5035143;28;20186;-69
2023/08/06 12:05:16;;;;;;;0.90;0.80;;;17.90;99.90;;;;;;5029093;28;20209;-69
2023/08/06 12:07:45;;;;;;;0.70;0.70;;;17.60;99.90;;;;;;5032184;28;20192;-70
2023/08/06 12:10:12;;;;;;;3.95;1.90;;;17.30;99.90;;;;;;5026836;28;20201;-70
2023/08/06 12:12:38;;;;;;;0.90;0.70;;;17.40;99.90;;;;;;5030416;28;20236;-69
2023/08/06 12:15:06;;;;;;;1.83;1.10;;;17.40;99.90;;;;;;5028552;28;20202;-69
2023/08/06 12:17:32;;;;;;;1.13;1.02;;;17.40;99.90;;;;;;5029360;28;20178;-70
2023/08/06 12:19:58;;;;;;;1.90;1.30;;;17.20;99.90;;;;;;5030378;28;20231;-70
2023/08/06 12:22:23;;;;;;;1.10;1.00;;;17.40;99.90;;;;;;5027344;28;20186;-71
2023/08/06 12:24:49;;;;;;;1.47;0.90;;;17.40;99.90;;;;;;5029266;28;20464;-70
2023/08/06 12:27:16;;;;;;;1.17;1.07;;;17.60;99.90;;;;;;5033193;28;20676;-70
2023/08/06 12:29:47;;;;;;;1.35;1.08;;;17.60;99.90;;;;;;5023707;28;20208;-70
2023/08/06 12:32:13;;;;;;;1.50;1.40;;;17.70;99.90;;;;;;5033757;28;20213;-70
2023/08/06 12:34:39;;;;;;;2.30;1.33;;;17.60;99.90;;;;;;5035764;28;20205;-70
2023/08/06 12:37:07;;;;;;;1.75;1.13;;;17.70;99.90;;;;;;5026346;28;20186;-70
2023/08/06 12:39:32;;;;;;;1.55;1.30;;;17.90;99.90;;;;;;5032837;28;20703;-70
2023/08/06 12:41:59;;;;;;;1.10;0.90;;;18.00;99.90;;;;;;5031881;28;20216;-70
2023/08/06 12:44:25;;;;;;;1.35;0.88;;;18.00;99.90;;;;;;5033259;28;20945;-69
2023/08/06 12:46:51;;;;;;;1.60;1.07;;;18.00;99.90;;;;;;5030972;28;20197;-69
2023/08/06 12:49:18;;;;;;;1.00;0.90;;;18.10;99.90;;;;;;5028883;28;20198;-70
2023/08/06 12:51:43;;;;;;;1.27;0.90;;;18.10;99.90;;;;;;5022815;28;20844;-70
2023/08/06 12:54:09;;;;;;;0.90;0.80;;;18.20;99.90;;;;;;5031891;28;20189;-69
2023/08/06 12:56:35;;;;;;;1.13;1.03;;;18.20;99.90;;;;;;5027216;28;20206;-72